Time;durP1;ratioP1;P1;durP2;ratioP2;P2;SDS_P1;SDS_P2;PMS_P1;PMS_P2;Temp;Humidity;BMP_temperature;BMP_pressure;BME280_temperature;BME280_humidity;BME280_pressure;Samples;Min_cycle;Max_cycle;Signal;HPM_P1;HPM_P2
2023/08/04 00:00:45;;;;;;;69.77;26.17;;;16.10;99.90;;;;;;6243239;23;20738;-74
2023/08/04 00:03:12;;;;;;;70.47;26.50;;;16.10;99.90;;;;;;6242991;23;20403;-75
2023/08/04 00:05:38;;;;;;;72.17;27.33;;;16.20;99.90;;;;;;6243395;23;20869;-77
2023/08/04 00:08:06;;;;;;;72.70;26.70;;;16.10;99.90;;;;;;6243268;23;20400;-77
2023/08/04 00:10:33;;;;;;;72.50;25.97;;;16.10;99.90;;;;;;6242085;23;20407;-77
2023/08/04 00:13:00;;;;;;;70.13;26.23;;;16.10;99.90;;;;;;6242263;23;20643;-76
2023/08/04 00:15:26;;;;;;;68.60;24.77;;;16.20;99.90;;;;;;6242259;23;20408;-76
2023/08/04 00:17:53;;;;;;;69.97;27.40;;;16.30;99.90;;;;;;6245670;23;20464;-77
2023/08/04 00:20:20;;;;;;;71.17;26.57;;;16.30;99.90;;;;;;6244319;23;20411;-77
2023/08/04 00:22:46;;;;;;;70.03;28.83;;;16.40;99.90;;;;;;6242194;23;20415;-77
2023/08/04 00:25:15;;;;;;;74.00;25.57;;;16.40;99.90;;;;;;6242807;23;20526;-77
2023/08/04 00:27:41;;;;;;;72.80;26.70;;;16.20;99.90;;;;;;6243032;23;20400;-77
2023/08/04 00:30:10;;;;;;;70.50;26.40;;;16.10;99.90;;;;;;6242530;23;20414;-77
2023/08/04 00:32:37;;;;;;;70.30;27.20;;;16.10;99.90;;;;;;6241843;23;20404;-77
2023/08/04 00:35:05;;;;;;;72.40;28.73;;;16.10;99.90;;;;;;6242641;23;20380;-77
2023/08/04 00:37:33;;;;;;;70.57;25.67;;;16.10;99.90;;;;;;6242162;23;20526;-76
2023/08/04 00:39:59;;;;;;;70.90;27.13;;;16.00;99.90;;;;;;6242352;23;20408;-78
2023/08/04 00:42:27;;;;;;;68.47;26.60;;;15.90;99.90;;;;;;6242576;23;20799;-77
2023/08/04 00:44:54;;;;;;;71.60;27.37;;;15.90;99.90;;;;;;6242580;23;20406;-78
2023/08/04 00:47:21;;;;;;;71.57;26.83;;;15.80;99.90;;;;;;6242243;23;20400;-78
2023/08/04 00:49:48;;;;;;;70.80;26.30;;;15.90;99.90;;;;;;6242434;23;20408;-76
2023/08/04 00:52:15;;;;;;;70.17;27.97;;;16.00;99.90;;;;;;6243112;23;20404;-77
2023/08/04 00:54:42;;;;;;;69.10;26.90;;;16.10;99.90;;;;;;6243272;23;20458;-78
2023/08/04 00:57:09;;;;;;;67.17;24.70;;;16.10;99.90;;;;;;6242301;23;20914;-78
2023/08/04 00:59:37;;;;;;;68.87;25.10;;;16.10;99.90;;;;;;6242342;23;20443;-78
2023/08/04 01:02:04;;;;;;;70.03;25.37;;;16.20;99.90;;;;;;6242992;23;20410;-78
2023/08/04 01:04:31;;;;;;;69.07;24.77;;;16.10;99.90;;;;;;6242806;23;20403;-78
2023/08/04 01:07:08;;;;;;;66.77;24.43;;;16.20;99.90;;;;;;6242577;23;20464;-78
2023/08/04 01:09:43;;;;;;;69.50;24.97;;;16.20;99.90;;;;;;6242581;23;20380;-76
2023/08/04 01:12:15;;;;;;;71.80;26.60;;;16.20;99.90;;;;;;6242760;23;20423;-76
2023/08/04 01:14:45;;;;;;;71.83;24.97;;;16.20;99.90;;;;;;6242847;23;20392;-76
2023/08/04 01:17:25;;;;;;;66.87;24.10;;;16.30;99.90;;;;;;6242446;23;20435;-76
2023/08/04 01:19:52;;;;;;;69.60;25.87;;;16.30;99.90;;;;;;6242506;23;20399;-76
2023/08/04 01:22:21;;;;;;;68.30;26.27;;;16.30;99.90;;;;;;6242806;23;20406;-77
2023/08/04 01:24:48;;;;;;;70.30;26.27;;;16.30;99.90;;;;;;6243017;23;20428;-78
2023/08/04 01:27:18;;;;;;;70.00;28.10;;;16.20;99.90;;;;;;6242698;23;20403;-77
2023/08/04 01:29:47;;;;;;;69.50;26.20;;;16.10;99.90;;;;;;6242799;23;20406;-77
2023/08/04 01:32:14;;;;;;;68.83;25.90;;;16.00;99.90;;;;;;6242612;23;20399;-76
2023/08/04 01:34:44;;;;;;;70.80;24.90;;;15.80;99.90;;;;;;6242141;23;20427;-77
2023/08/04 01:37:11;;;;;;;73.90;26.00;;;15.90;99.90;;;;;;6242495;23;20396;-77
2023/08/04 01:39:39;;;;;;;70.43;26.40;;;15.90;99.90;;;;;;6241930;23;20450;-76
2023/08/04 01:42:06;;;;;;;68.57;26.47;;;15.90;99.90;;;;;;6242674;23;20400;-76
2023/08/04 01:44:33;;;;;;;71.60;27.40;;;16.00;99.90;;;;;;6243071;23;20411;-75
2023/08/04 01:47:00;;;;;;;68.43;26.50;;;15.90;99.90;;;;;;6242993;23;20406;-75
2023/08/04 01:49:27;;;;;;;67.97;25.90;;;15.90;99.90;;;;;;6242823;23;20411;-76
2023/08/04 01:51:53;;;;;;;70.60;27.50;;;15.90;99.90;;;;;;6243149;23;20415;-76
2023/08/04 01:54:20;;;;;;;69.37;27.27;;;15.80;99.90;;;;;;6242451;23;20907;-76
2023/08/04 01:56:48;;;;;;;68.67;27.43;;;15.80;99.90;;;;;;6242437;23;20408;-75
2023/08/04 01:59:15;;;;;;;68.07;24.70;;;15.70;99.90;;;;;;6242932;23;20435;-75
2023/08/04 02:01:42;;;;;;;69.20;26.97;;;15.70;99.90;;;;;;6242533;23;20403;-76
2023/08/04 02:04:09;;;;;;;69.80;26.00;;;15.80;99.90;;;;;;6242002;23;20408;-75
2023/08/04 02:06:35;;;;;;;69.47;28.67;;;15.70;99.90;;;;;;6242763;23;20411;-76
2023/08/04 02:09:03;;;;;;;69.00;26.97;;;15.70;99.90;;;;;;6242595;23;20396;-76
2023/08/04 02:11:30;;;;;;;70.20;27.13;;;15.70;99.90;;;;;;6241958;23;20411;-77
2023/08/04 02:13:58;;;;;;;69.40;28.30;;;15.70;99.90;;;;;;6242710;23;20892;-77
2023/08/04 02:16:25;;;;;;;72.53;26.90;;;15.60;99.90;;;;;;6243196;23;20399;-77
2023/08/04 02:18:52;;;;;;;71.60;28.93;;;15.60;99.90;;;;;;6242819;23;20505;-77
2023/08/04 02:21:19;;;;;;;71.97;28.50;;;15.70;99.90;;;;;;6242706;23;20407;-76
2023/08/04 02:23:46;;;;;;;69.80;27.27;;;15.60;99.90;;;;;;6242791;23;20411;-77
2023/08/04 02:26:12;;;;;;;70.30;27.70;;;15.80;99.90;;;;;;6242721;23;20404;-77
2023/08/04 02:28:39;;;;;;;69.37;26.70;;;15.80;99.90;;;;;;6242178;23;20400;-77
2023/08/04 02:31:07;;;;;;;73.07;28.73;;;15.80;99.90;;;;;;6242541;23;20958;-76
2023/08/04 02:33:34;;;;;;;70.90;26.63;;;15.90;99.90;;;;;;6242344;23;20431;-77
2023/08/04 02:36:01;;;;;;;70.90;28.20;;;15.90;99.90;;;;;;6242540;23;20411;-76
2023/08/04 02:38:27;;;;;;;69.20;27.80;;;16.00;99.90;;;;;;6241881;23;20450;-77
2023/08/04 02:40:54;;;;;;;71.33;27.40;;;16.10;99.90;;;;;;6242788;23;20404;-77
2023/08/04 02:43:20;;;;;;;72.70;28.13;;;16.10;99.90;;;;;;6242308;23;20408;-77
2023/08/04 02:45:48;;;;;;;73.70;27.97;;;16.10;99.90;;;;;;6242936;23;20807;-76
2023/08/04 02:48:16;;;;;;;71.10;26.90;;;16.00;99.90;;;;;;6244829;23;20892;-77
2023/08/04 02:50:43;;;;;;;69.57;25.80;;;16.10;99.90;;;;;;6244612;23;20404;-78
2023/08/04 02:53:10;;;;;;;70.13;24.67;;;16.10;99.90;;;;;;6244800;23;20411;-75
2023/08/04 02:55:37;;;;;;;70.07;26.33;;;16.10;99.90;;;;;;6243994;23;20737;-76
2023/08/04 02:58:03;;;;;;;68.07;24.40;;;16.20;99.90;;;;;;6243861;23;20411;-75
2023/08/04 03:00:31;;;;;;;70.57;25.23;;;16.20;99.90;;;;;;6244273;23;20404;-76
2023/08/04 03:03:00;;;;;;;69.87;25.70;;;16.30;99.90;;;;;;6244439;23;20407;-77
2023/08/04 03:05:28;;;;;;;68.97;26.90;;;16.40;99.90;;;;;;6244139;23;20408;-76
2023/08/04 03:07:54;;;;;;;68.80;26.40;;;16.40;99.90;;;;;;6244618;23;20410;-76
2023/08/04 03:10:21;;;;;;;70.83;26.63;;;16.50;99.90;;;;;;6244037;23;20408;-77
2023/08/04 03:12:48;;;;;;;72.77;28.53;;;16.50;99.90;;;;;;6243636;23;20990;-75
2023/08/04 03:15:14;;;;;;;69.50;26.50;;;16.50;99.90;;;;;;6243522;23;20797;-75
2023/08/04 03:17:41;;;;;;;69.67;27.80;;;16.50;99.90;;;;;;6243443;23;20433;-75
2023/08/04 03:20:09;;;;;;;70.00;25.93;;;16.50;99.90;;;;;;6243529;23;20442;-75
2023/08/04 03:22:37;;;;;;;70.27;25.70;;;16.50;99.90;;;;;;6243365;23;20400;-75
2023/08/04 03:25:04;;;;;;;69.73;24.53;;;16.50;99.90;;;;;;6243229;23;20399;-74
2023/08/04 03:27:31;;;;;;;68.30;25.13;;;16.50;99.90;;;;;;6243326;23;20404;-77
2023/08/04 03:29:57;;;;;;;69.27;25.43;;;16.50;99.90;;;;;;6243138;23;20400;-79
2023/08/04 03:32:24;;;;;;;68.37;26.57;;;16.40;99.90;;;;;;6243222;23;20404;-76
2023/08/04 03:34:51;;;;;;;68.37;26.47;;;16.40;99.90;;;;;;6243124;23;20447;-76
2023/08/04 03:37:17;;;;;;;67.60;25.63;;;16.40;99.90;;;;;;6243753;23;20748;-76
2023/08/04 03:39:46;;;;;;;72.07;24.87;;;16.30;99.90;;;;;;6243201;23;20443;-76
2023/08/04 03:42:12;;;;;;;69.27;24.80;;;16.30;99.90;;;;;;6243560;23;20407;-76
2023/08/04 03:44:39;;;;;;;71.97;26.43;;;16.40;99.90;;;;;;6242890;23;20403;-76
2023/08/04 03:47:06;;;;;;;68.63;24.47;;;16.40;99.90;;;;;;6235735;22;20474;-75
2023/08/04 03:49:33;;;;;;;69.83;26.90;;;16.40;99.90;;;;;;6239941;23;20400;-76
2023/08/04 03:52:00;;;;;;;70.80;26.57;;;16.40;99.90;;;;;;6240019;23;20521;-76
2023/08/04 03:54:26;;;;;;;71.30;26.50;;;16.40;99.90;;;;;;6240369;23;20435;-75
2023/08/04 03:56:55;;;;;;;69.97;28.13;;;16.40;99.90;;;;;;6240511;23;20415;-75
2023/08/04 03:59:21;;;;;;;73.27;27.73;;;16.30;99.90;;;;;;6244001;23;20440;-76
2023/08/04 04:01:48;;;;;;;70.07;27.50;;;16.20;99.90;;;;;;6243033;23;20419;-75
2023/08/04 04:04:15;;;;;;;71.57;29.00;;;16.10;99.90;;;;;;6243978;23;20408;-76
2023/08/04 04:06:41;;;;;;;87.77;29.67;;;16.10;99.90;;;;;;6242320;23;20403;-74
2023/08/04 04:09:08;;;;;;;72.10;28.93;;;16.10;99.90;;;;;;6243032;23;20408;-75
2023/08/04 04:11:35;;;;;;;69.57;27.27;;;16.20;99.90;;;;;;6242747;23;20415;-75
2023/08/04 04:14:03;;;;;;;69.60;28.17;;;16.30;99.90;;;;;;6243386;23;20404;-75
2023/08/04 04:16:30;;;;;;;72.40;28.33;;;16.20;99.90;;;;;;6243811;23;20404;-76
2023/08/04 04:18:56;;;;;;;71.40;28.23;;;16.30;99.90;;;;;;6243585;23;20439;-76
2023/08/04 04:21:23;;;;;;;70.40;27.93;;;16.20;99.90;;;;;;6243428;23;20410;-76
2023/08/04 04:23:50;;;;;;;72.70;26.87;;;16.20;99.90;;;;;;6243090;23;20415;-76
2023/08/04 04:26:17;;;;;;;73.43;28.43;;;16.20;99.90;;;;;;6242411;23;20896;-76
2023/08/04 04:28:43;;;;;;;71.50;27.60;;;16.20;99.90;;;;;;6242846;23;20400;-77
2023/08/04 04:31:11;;;;;;;75.97;26.83;;;16.20;99.90;;;;;;6243345;23;20423;-76
2023/08/04 04:33:38;;;;;;;70.63;26.40;;;16.10;99.90;;;;;;6243004;22;21011;-77
2023/08/04 04:36:05;;;;;;;70.70;26.17;;;16.10;99.90;;;;;;6243047;23;20407;-77
2023/08/04 04:38:32;;;;;;;70.20;25.43;;;16.10;99.90;;;;;;6243505;23;20412;-76
2023/08/04 04:41:00;;;;;;;68.17;26.73;;;16.10;99.90;;;;;;6242310;23;20408;-76
2023/08/04 04:43:27;;;;;;;69.00;26.90;;;16.30;99.90;;;;;;6243529;23;20408;-76
2023/08/04 04:45:54;;;;;;;70.30;25.40;;;16.30;99.90;;;;;;6243378;23;20411;-76
2023/08/04 04:48:24;;;;;;;68.70;26.63;;;16.30;99.90;;;;;;6242775;23;20404;-77
2023/08/04 04:50:51;;;;;;;73.07;28.03;;;16.30;99.90;;;;;;6240950;23;20433;-78
2023/08/04 04:53:18;;;;;;;69.90;26.10;;;16.30;99.90;;;;;;6242430;23;20423;-77
2023/08/04 04:55:45;;;;;;;71.83;27.43;;;16.30;99.90;;;;;;6242703;23;20411;-77
2023/08/04 04:58:12;;;;;;;68.00;25.63;;;16.60;99.90;;;;;;6242173;23;20907;-77
2023/08/04 05:00:39;;;;;;;67.50;26.43;;;16.70;99.90;;;;;;6242457;23;20538;-75
2023/08/04 05:03:08;;;;;;;67.87;26.60;;;16.90;99.90;;;;;;6243073;23;20735;-76
2023/08/04 05:05:37;;;;;;;69.10;26.10;;;17.00;99.90;;;;;;6243225;23;20454;-79
2023/08/04 05:08:05;;;;;;;70.50;27.53;;;17.00;99.90;;;;;;6243129;23;20466;-78
2023/08/04 05:11:16;;;;;;;71.10;28.00;;;17.30;99.90;;;;;;6242096;23;20411;-80
2023/08/04 05:13:43;;;;;;;68.77;26.60;;;17.50;99.90;;;;;;6224969;23;20440;-81
2023/08/04 05:16:10;;;;;;;69.83;27.07;;;17.30;99.90;;;;;;6242733;23;20400;-81
2023/08/04 05:18:36;;;;;;;69.23;26.20;;;17.10;99.90;;;;;;6243058;23;20404;-80
2023/08/04 05:21:04;;;;;;;68.87;24.03;;;17.00;99.90;;;;;;6242172;23;20444;-80
2023/08/04 05:23:31;;;;;;;71.03;26.83;;;17.00;99.90;;;;;;6242876;23;20414;-80
2023/08/04 05:25:58;;;;;;;71.70;26.47;;;17.10;99.90;;;;;;6242622;23;20404;-79
2023/08/04 05:28:28;;;;;;;69.10;27.20;;;17.10;99.90;;;;;;6243136;23;20404;-80
2023/08/04 05:30:57;;;;;;;68.70;26.07;;;17.20;99.90;;;;;;6242905;23;20436;-79
2023/08/04 05:33:24;;;;;;;72.07;26.53;;;17.20;99.90;;;;;;6242341;22;20432;-81
2023/08/04 05:35:51;;;;;;;68.27;25.70;;;17.40;99.90;;;;;;6243227;23;20412;-80
2023/08/04 05:38:19;;;;;;;68.10;26.80;;;17.50;99.90;;;;;;6241926;23;20408;-81
2023/08/04 05:40:47;;;;;;;68.57;25.03;;;17.40;99.90;;;;;;6242293;23;20444;-79
2023/08/04 05:43:14;;;;;;;71.70;24.90;;;17.50;99.90;;;;;;6242300;23;20408;-80
2023/08/04 05:45:42;;;;;;;72.90;24.67;;;17.50;99.90;;;;;;6242763;23;20722;-81
2023/08/04 05:48:09;;;;;;;69.27;26.27;;;17.60;99.90;;;;;;6242927;23;20411;-81
2023/08/04 05:50:36;;;;;;;67.07;25.00;;;17.80;99.90;;;;;;6242380;23;20400;-80
2023/08/04 05:53:03;;;;;;;66.93;24.37;;;17.90;99.90;;;;;;6242544;23;20515;-81
2023/08/04 05:55:32;;;;;;;70.83;26.87;;;18.10;99.90;;;;;;6241460;23;20410;-80
2023/08/04 05:57:58;;;;;;;67.70;26.80;;;18.50;99.90;;;;;;6241289;23;20408;-80
2023/08/04 06:00:25;;;;;;;67.80;25.90;;;18.60;99.90;;;;;;6241499;23;20444;-80
2023/08/04 06:02:52;;;;;;;66.97;25.07;;;18.70;99.90;;;;;;6241604;23;20502;-80
2023/08/04 06:05:19;;;;;;;67.97;25.47;;;18.80;99.90;;;;;;6242335;23;20411;-81
2023/08/04 06:07:47;;;;;;;70.07;26.07;;;19.00;99.90;;;;;;6241981;23;20410;-79
2023/08/04 06:10:16;;;;;;;66.60;25.07;;;19.20;99.90;;;;;;6241907;23;20496;-81
2023/08/04 06:12:44;;;;;;;66.83;24.77;;;19.40;99.90;;;;;;6242020;23;20438;-81
2023/08/04 06:15:11;;;;;;;68.30;26.70;;;19.80;99.90;;;;;;6241904;23;20404;-75
2023/08/04 06:17:38;;;;;;;66.67;24.97;;;20.10;99.90;;;;;;6242462;23;20415;-80
2023/08/04 06:20:05;;;;;;;68.00;24.97;;;20.40;99.90;;;;;;6242003;23;20439;-81
2023/08/04 06:22:33;;;;;;;68.07;24.53;;;20.80;99.90;;;;;;6244060;23;20502;-81
2023/08/04 06:25:00;;;;;;;68.30;23.70;;;21.20;99.90;;;;;;6243982;23;20403;-80
2023/08/04 06:27:27;;;;;;;72.30;25.17;;;21.40;99.90;;;;;;6243218;23;20918;-79
2023/08/04 06:29:55;;;;;;;67.87;26.20;;;21.60;99.90;;;;;;6244064;23;20423;-79
2023/08/04 06:32:22;;;;;;;68.50;26.10;;;21.80;99.90;;;;;;6244191;23;20415;-79
2023/08/04 06:34:48;;;;;;;68.00;25.00;;;21.80;99.90;;;;;;6243563;23;20442;-81
2023/08/04 06:37:15;;;;;;;68.00;25.43;;;22.10;99.90;;;;;;6243316;23;20736;-81
2023/08/04 06:39:42;;;;;;;68.00;27.03;;;22.20;99.90;;;;;;6244143;23;20440;-80
2023/08/04 06:42:08;;;;;;;67.67;26.17;;;22.20;99.90;;;;;;6243982;23;20418;-78
2023/08/04 06:44:35;;;;;;;65.57;24.80;;;22.20;99.90;;;;;;6244001;23;20403;-78
2023/08/04 06:47:04;;;;;;;67.63;25.90;;;22.30;99.90;;;;;;6243729;23;20400;-79
2023/08/04 06:49:30;;;;;;;66.90;26.80;;;22.50;99.90;;;;;;6243284;23;20396;-78
2023/08/04 06:51:57;;;;;;;67.40;25.53;;;22.60;99.90;;;;;;6243739;23;20411;-80
2023/08/04 06:54:24;;;;;;;67.70;25.90;;;22.30;99.90;;;;;;6244162;23;20404;-79
2023/08/04 06:56:51;;;;;;;68.40;26.00;;;22.50;99.90;;;;;;6244214;23;20412;-80
2023/08/04 06:59:17;;;;;;;65.77;24.83;;;22.70;99.90;;;;;;6244300;23;20406;-80
2023/08/04 07:01:44;;;;;;;74.30;25.70;;;22.80;99.90;;;;;;6243986;23;20731;-79
2023/08/04 07:04:12;;;;;;;66.30;25.10;;;23.20;99.90;;;;;;6243944;23;20435;-80
2023/08/04 07:06:39;;;;;;;66.00;26.80;;;23.50;99.20;;;;;;6244107;23;20408;-80
2023/08/04 07:09:05;;;;;;;66.37;25.67;;;23.60;98.90;;;;;;6244373;23;20407;-81
2023/08/04 07:11:32;;;;;;;65.23;24.40;;;24.30;97.90;;;;;;6244113;23;20403;-80
2023/08/04 07:13:59;;;;;;;68.80;27.13;;;25.10;95.80;;;;;;6243964;23;20412;-79
2023/08/04 07:16:25;;;;;;;65.60;25.03;;;25.30;95.00;;;;;;6243730;23;20733;-79
2023/08/04 07:18:52;;;;;;;65.50;25.60;;;26.00;94.80;;;;;;6243917;23;20772;-80
2023/08/04 07:21:20;;;;;;;67.00;26.00;;;26.90;92.80;;;;;;6243252;23;20443;-79
2023/08/04 07:23:47;;;;;;;64.97;26.23;;;27.60;91.20;;;;;;6243960;23;20400;-78
2023/08/04 07:26:13;;;;;;;66.80;28.30;;;28.40;88.20;;;;;;6243673;23;20404;-77
2023/08/04 07:28:40;;;;;;;65.60;25.50;;;28.20;87.20;;;;;;6243885;23;20411;-77
2023/08/04 07:31:08;;;;;;;64.50;26.43;;;27.70;88.60;;;;;;6243724;23;20392;-77
2023/08/04 07:33:35;;;;;;;64.57;26.00;;;27.30;88.60;;;;;;6243108;22;20432;-77
2023/08/04 07:36:03;;;;;;;65.30;24.77;;;26.90;89.90;;;;;;6243657;23;20404;-77
2023/08/04 07:38:32;;;;;;;65.87;25.87;;;26.20;90.90;;;;;;6243711;23;20407;-77
2023/08/04 07:40:59;;;;;;;66.70;26.33;;;26.40;90.70;;;;;;6243993;23;20444;-76
2023/08/04 07:43:26;;;;;;;68.20;24.83;;;26.30;90.90;;;;;;6244167;23;20458;-77
2023/08/04 07:45:54;;;;;;;68.57;26.37;;;26.00;91.00;;;;;;6244308;23;20404;-76
2023/08/04 07:48:21;;;;;;;66.47;26.17;;;25.00;92.20;;;;;;6244129;23;20404;-76
2023/08/04 07:50:50;;;;;;;66.13;24.30;;;24.80;92.50;;;;;;6243694;23;20392;-76
2023/08/04 07:53:16;;;;;;;64.73;23.37;;;24.80;92.80;;;;;;6243265;23;21225;-78
2023/08/04 07:55:55;;;;;;;64.93;25.50;;;25.30;91.90;;;;;;6242672;23;20396;-78
2023/08/04 07:58:21;;;;;;;64.33;24.33;;;25.30;91.70;;;;;;6242803;23;20384;-79
2023/08/04 08:00:48;;;;;;;65.67;25.87;;;25.70;91.40;;;;;;6242479;23;20446;-78
2023/08/04 08:03:15;;;;;;;64.17;25.00;;;26.30;90.90;;;;;;6242397;23;20400;-78
2023/08/04 08:05:41;;;;;;;65.10;26.93;;;26.60;90.10;;;;;;6243012;23;20404;-77
2023/08/04 08:08:09;;;;;;;64.77;25.73;;;26.40;90.00;;;;;;6242142;23;20408;-78
2023/08/04 08:10:35;;;;;;;65.57;24.53;;;26.00;90.50;;;;;;6243046;23;20400;-78
2023/08/04 08:13:03;;;;;;;65.67;26.03;;;26.20;90.80;;;;;;6242805;23;20427;-78
2023/08/04 08:15:32;;;;;;;65.40;26.77;;;26.90;89.30;;;;;;6242559;23;20400;-78
2023/08/04 08:17:59;;;;;;;68.00;28.50;;;27.80;87.10;;;;;;6242859;23;20416;-78
2023/08/04 08:20:26;;;;;;;65.67;26.83;;;28.60;82.80;;;;;;6241726;23;20803;-77
2023/08/04 08:22:53;;;;;;;67.53;28.53;;;29.50;79.50;;;;;;6242809;23;20411;-77
2023/08/04 08:25:19;;;;;;;65.40;28.73;;;30.60;77.20;;;;;;6242468;23;20416;-77
2023/08/04 08:27:46;;;;;;;64.40;27.73;;;31.10;75.50;;;;;;6242639;23;20404;-78
2023/08/04 08:30:14;;;;;;;63.87;26.60;;;31.60;71.90;;;;;;6242521;23;20833;-75
2023/08/04 08:32:41;;;;;;;65.87;28.90;;;30.60;72.10;;;;;;6242783;23;20404;-75
2023/08/04 08:35:08;;;;;;;67.57;29.10;;;30.60;73.70;;;;;;6242493;23;20396;-77
2023/08/04 08:37:35;;;;;;;66.30;30.00;;;30.30;73.70;;;;;;6242723;23;20408;-76
2023/08/04 08:40:02;;;;;;;65.77;29.07;;;29.50;74.50;;;;;;6242699;23;22662;-76
2023/08/04 08:42:29;;;;;;;65.37;27.30;;;29.50;76.20;;;;;;6242606;23;20915;-76
2023/08/04 08:44:56;;;;;;;67.27;27.90;;;29.90;74.70;;;;;;6242224;23;20404;-76
2023/08/04 08:47:29;;;;;;;65.53;30.03;;;29.80;76.00;;;;;;6242635;23;20404;-76
2023/08/04 08:50:01;;;;;;;67.07;29.23;;;30.00;76.00;;;;;;6242830;23;20519;-75
2023/08/04 08:52:31;;;;;;;66.03;27.40;;;30.20;74.30;;;;;;6242357;23;20398;-76
2023/08/04 08:54:59;;;;;;;66.67;28.20;;;29.90;74.10;;;;;;6243069;23;20408;-75
2023/08/04 08:57:27;;;;;;;65.73;28.80;;;29.80;75.30;;;;;;6242348;23;20408;-75
2023/08/04 08:59:54;;;;;;;65.67;28.30;;;30.00;74.70;;;;;;6242145;23;20404;-76
2023/08/04 09:02:22;;;;;;;65.80;29.07;;;29.70;75.50;;;;;;6242224;23;20407;-75
2023/08/04 09:04:50;;;;;;;69.30;30.93;;;30.00;74.40;;;;;;6242765;23;20408;-75
2023/08/04 09:07:17;;;;;;;65.90;30.10;;;30.50;76.10;;;;;;6242464;23;20412;-75
2023/08/04 09:09:44;;;;;;;66.40;28.30;;;31.40;71.50;;;;;;6242483;23;20907;-75
2023/08/04 09:12:11;;;;;;;65.20;28.80;;;30.70;71.60;;;;;;6242362;23;20424;-75
2023/08/04 09:14:48;;;;;;;67.13;30.20;;;29.70;75.60;;;;;;6242266;23;20738;-75
2023/08/04 09:17:29;;;;;;;64.70;27.50;;;29.40;76.00;;;;;;6242054;23;20868;-75
2023/08/04 09:19:58;;;;;;;66.90;27.27;;;28.20;78.50;;;;;;6242430;23;20392;-75
2023/08/04 09:22:25;;;;;;;64.80;26.97;;;27.60;82.40;;;;;;6242532;23;20404;-75
2023/08/04 09:24:59;;;;;;;66.87;29.00;;;27.40;83.30;;;;;;6242680;23;20415;-75
2023/08/04 09:27:28;;;;;;;65.43;27.33;;;27.40;82.50;;;;;;6242416;23;20426;-76
2023/08/04 09:29:57;;;;;;;67.10;27.17;;;27.10;83.60;;;;;;6242295;23;20408;-76
2023/08/04 09:32:24;;;;;;;66.13;27.80;;;27.50;84.60;;;;;;6242358;23;20462;-75
2023/08/04 09:35:01;;;;;;;67.53;27.30;;;28.60;82.70;;;;;;6241978;23;20436;-76
2023/08/04 09:37:28;;;;;;;65.77;28.13;;;28.70;79.40;;;;;;6242471;23;20388;-75
2023/08/04 09:39:54;;;;;;;65.77;27.30;;;28.30;80.70;;;;;;6242308;23;20396;-75
2023/08/04 09:42:22;;;;;;;66.27;28.10;;;27.90;81.80;;;;;;6241937;23;20431;-75
2023/08/04 09:44:53;;;;;;;65.57;25.47;;;27.90;82.30;;;;;;6242413;23;20415;-75
2023/08/04 09:47:23;;;;;;;65.07;28.10;;;27.40;84.10;;;;;;6242422;23;20408;-75
2023/08/04 09:49:50;;;;;;;67.27;26.30;;;27.00;84.30;;;;;;6242700;23;20404;-75
2023/08/04 09:52:27;;;;;;;65.37;27.50;;;26.90;84.60;;;;;;6242597;23;20400;-75
2023/08/04 09:54:55;;;;;;;67.17;27.30;;;27.20;85.20;;;;;;6242848;23;20682;-76
2023/08/04 09:57:23;;;;;;;66.57;27.70;;;28.30;83.30;;;;;;6244301;23;20419;-76
2023/08/04 09:59:50;;;;;;;67.37;28.30;;;29.70;78.40;;;;;;6244186;23;20399;-75
2023/08/04 10:02:19;;;;;;;65.87;27.80;;;30.50;75.30;;;;;;6243713;23;20502;-75
2023/08/04 10:04:49;;;;;;;68.47;28.80;;;30.90;73.10;;;;;;6244462;23;20732;-75
2023/08/04 10:07:16;;;;;;;65.70;29.27;;;31.70;70.00;;;;;;6244487;23;20420;-75
2023/08/04 10:09:44;;;;;;;69.07;27.67;;;31.20;70.20;;;;;;6244052;23;20922;-76
2023/08/04 10:12:12;;;;;;;68.00;28.60;;;32.10;70.00;;;;;;6244042;23;20777;-75
2023/08/04 10:14:39;;;;;;;64.50;27.63;;;32.80;67.10;;;;;;6244080;23;20461;-76
2023/08/04 10:17:06;;;;;;;66.00;28.80;;;33.00;65.90;;;;;;6243833;23;20412;-80
2023/08/04 10:19:34;;;;;;;67.27;29.63;;;34.00;63.30;;;;;;6243819;23;20400;-75
2023/08/04 10:22:06;;;;;;;65.50;28.33;;;33.30;65.10;;;;;;6244068;23;20439;-75
2023/08/04 10:24:36;;;;;;;64.67;29.50;;;34.10;63.80;;;;;;6243674;23;20443;-78
2023/08/04 10:27:15;;;;;;;66.30;29.53;;;34.30;61.30;;;;;;6244603;23;20408;-83
2023/08/04 10:29:42;;;;;;;68.37;27.70;;;32.60;64.30;;;;;;6244781;23;20387;-82
2023/08/04 10:32:10;;;;;;;67.10;26.90;;;30.50;69.50;;;;;;6244500;23;20411;-82
2023/08/04 10:34:38;;;;;;;65.43;25.90;;;28.70;75.90;;;;;;6242927;23;20442;-82
2023/08/04 10:37:09;;;;;;;65.17;26.20;;;27.20;80.70;;;;;;6243634;23;20410;-82
2023/08/04 10:39:37;;;;;;;67.23;26.53;;;26.00;87.30;;;;;;6244251;23;20447;-82
2023/08/04 10:42:07;;;;;;;65.37;25.30;;;25.40;91.30;;;;;;6244494;23;20446;-82
2023/08/04 10:44:53;;;;;;;67.00;25.93;;;25.30;92.50;;;;;;6244548;23;20411;-81
2023/08/04 10:47:32;;;;;;;66.00;24.80;;;25.00;92.90;;;;;;6244424;23;20731;-82
2023/08/04 10:49:59;;;;;;;66.70;25.57;;;24.80;93.60;;;;;;6244445;23;20408;-82
2023/08/04 10:52:27;;;;;;;66.50;25.07;;;24.70;94.40;;;;;;6243923;23;20731;-82
2023/08/04 10:54:54;;;;;;;67.50;26.03;;;24.70;94.40;;;;;;6243655;23;20441;-82
2023/08/04 10:57:21;;;;;;;65.07;24.60;;;24.70;95.10;;;;;;6237973;23;20432;-82
2023/08/04 10:59:49;;;;;;;66.00;24.53;;;24.70;95.60;;;;;;6243304;23;20714;-81
2023/08/04 11:02:17;;;;;;;65.50;24.33;;;24.60;96.10;;;;;;6243244;23;20440;-81
2023/08/04 11:04:45;;;;;;;64.80;24.87;;;24.50;96.70;;;;;;6243337;23;20411;-82
2023/08/04 11:07:12;;;;;;;66.37;25.70;;;24.50;97.00;;;;;;6242550;23;20895;-81
2023/08/04 11:09:39;;;;;;;65.70;25.50;;;24.50;97.10;;;;;;6243092;23;20706;-81
2023/08/04 11:12:07;;;;;;;67.13;25.90;;;24.30;97.30;;;;;;6242849;23;20424;-81
2023/08/04 11:14:35;;;;;;;65.87;24.40;;;24.10;97.60;;;;;;6243051;23;20400;-82
2023/08/04 11:17:03;;;;;;;64.57;25.50;;;24.00;98.00;;;;;;6243130;23;20738;-75
2023/08/04 11:19:30;;;;;;;66.10;26.10;;;24.10;97.90;;;;;;6243290;23;20407;-81
2023/08/04 11:21:56;;;;;;;65.53;25.70;;;24.10;97.80;;;;;;6243595;23;20440;-79
2023/08/04 11:24:24;;;;;;;66.60;25.83;;;24.10;99.40;;;;;;6243696;23;20400;-81
2023/08/04 11:26:52;;;;;;;67.00;24.83;;;23.90;99.90;;;;;;6243011;23;20952;-80
2023/08/04 11:29:18;;;;;;;68.50;26.10;;;24.20;99.90;;;;;;6243919;23;20472;-80
2023/08/04 11:31:46;;;;;;;65.40;25.17;;;24.60;98.80;;;;;;6243549;23;20400;-79
2023/08/04 11:34:15;;;;;;;67.40;25.70;;;24.70;98.00;;;;;;6244044;23;20439;-80
2023/08/04 11:36:42;;;;;;;65.70;26.00;;;24.90;97.10;;;;;;6243606;23;20408;-80
2023/08/04 11:39:09;;;;;;;66.10;26.20;;;25.30;97.20;;;;;;6243219;23;20411;-77
2023/08/04 11:41:37;;;;;;;70.77;26.00;;;25.60;96.50;;;;;;6243204;23;20443;-75
2023/08/04 11:44:04;;;;;;;67.37;27.23;;;25.70;96.20;;;;;;6242613;23;20736;-75
2023/08/04 11:46:31;;;;;;;65.67;26.50;;;25.60;96.10;;;;;;6243469;23;20407;-75
2023/08/04 11:48:58;;;;;;;65.83;26.20;;;25.90;95.80;;;;;;6243602;23;20404;-76
2023/08/04 11:51:26;;;;;;;64.63;26.27;;;25.90;96.00;;;;;;6243656;23;20415;-76
2023/08/04 11:53:53;;;;;;;66.27;25.80;;;25.60;96.40;;;;;;6241758;23;20408;-76
2023/08/04 11:56:19;;;;;;;66.07;25.97;;;25.40;96.80;;;;;;6242916;23;20400;-76
2023/08/04 11:58:50;;;;;;;65.97;25.10;;;25.20;97.20;;;;;;6243187;23;20411;-75
2023/08/04 12:01:27;;;;;;;69.00;25.60;;;24.90;98.00;;;;;;6243062;23;20485;-75
2023/08/04 12:03:54;;;;;;;69.20;25.67;;;24.80;98.00;;;;;;6242735;23;20434;-75
2023/08/04 12:06:23;;;;;;;65.83;25.47;;;24.40;98.20;;;;;;6243021;23;20915;-75
2023/08/04 12:08:53;;;;;;;66.57;26.57;;;24.10;99.40;;;;;;6243186;23;20411;-76
2023/08/04 12:11:21;;;;;;;67.80;26.90;;;23.90;99.90;;;;;;6243539;23;20396;-76
2023/08/04 12:13:48;;;;;;;66.97;26.03;;;23.70;99.90;;;;;;6243039;23;20729;-75
2023/08/04 12:16:17;;;;;;;69.57;27.10;;;23.40;99.90;;;;;;6243300;23;20404;-75
2023/08/04 12:18:45;;;;;;;66.97;25.33;;;23.20;99.90;;;;;;6242756;23;20403;-75
2023/08/04 12:21:15;;;;;;;69.90;26.17;;;23.20;99.90;;;;;;6242440;23;20727;-75
2023/08/04 12:23:47;;;;;;;68.17;25.87;;;23.00;99.90;;;;;;6242882;23;20454;-75
2023/08/04 12:26:15;;;;;;;68.47;27.23;;;22.90;99.90;;;;;;6243185;23;20392;-75
2023/08/04 12:28:42;;;;;;;68.90;25.80;;;22.80;99.90;;;;;;6242995;23;20411;-75
2023/08/04 12:31:09;;;;;;;68.40;25.90;;;22.70;99.90;;;;;;6243566;23;20404;-76